createdAt,value
2023-05-04T00:08:10.796Z,3.66
2023-05-04T00:23:13.574Z,3.45
2023-05-04T00:38:16.898Z,3.19
2023-05-04T00:53:19.817Z,3.10
2023-05-04T01:08:29.705Z,2.99
2023-05-04T01:23:32.463Z,2.87
2023-05-04T01:38:35.152Z,2.69
2023-05-04T01:53:38.205Z,2.58
2023-05-04T02:08:41.449Z,2.46
2023-05-04T02:23:49.181Z,2.36
2023-05-04T02:38:51.979Z,2.20
2023-05-04T02:53:54.705Z,2.09
2023-05-04T03:08:57.839Z,1.98
2023-05-04T03:24:00.510Z,1.91
2023-05-04T03:39:03.347Z,1.88
2023-05-04T03:54:06.565Z,2.08
2023-05-04T04:09:09.143Z,4.07
2023-05-04T04:24:12.003Z,6.89
2023-05-04T04:39:16.989Z,10.12
2023-05-04T04:54:19.900Z,13.02
2023-05-04T05:09:22.778Z,15.55
2023-05-04T05:24:25.452Z,16.67
2023-05-04T05:39:28.849Z,18.12
2023-05-04T05:54:32.598Z,19.89
2023-05-04T06:09:35.272Z,20.63
2023-05-04T06:24:38.060Z,21.39
2023-05-04T06:39:40.792Z,21.87
2023-05-04T06:54:43.627Z,21.60
2023-05-04T07:09:50.844Z,22.44
2023-05-04T07:24:54.001Z,21.64
2023-05-04T07:39:56.576Z,23.39
2023-05-04T07:54:59.234Z,22.88
2023-05-04T08:10:02.026Z,23.42
2023-05-04T08:25:06.199Z,22.76
2023-05-04T08:40:09.690Z,21.52
2023-05-04T08:55:13.119Z,22.08
2023-05-04T09:10:15.817Z,21.17
2023-05-04T09:25:18.427Z,21.25
2023-05-04T09:40:41.015Z,20.88
2023-05-04T09:55:46.787Z,22.35
2023-05-04T10:10:51.298Z,23.76
2023-05-04T10:26:17.315Z,20.73
2023-05-04T10:41:21.976Z,20.50
2023-05-04T10:56:28.413Z,19.86
2023-05-04T11:11:37.405Z,19.81
2023-05-04T11:26:48.889Z,19.18
2023-05-04T11:41:52.819Z,18.98
2023-05-04T11:56:56.048Z,18.91
2023-05-04T12:11:58.933Z,18.98
2023-05-04T12:27:02.177Z,19.27
2023-05-04T12:42:05.477Z,19.13
2023-05-04T12:57:09.235Z,18.73
2023-05-04T13:12:13.890Z,18.64
2023-05-04T13:27:17.482Z,18.63
2023-05-04T13:42:21.155Z,18.63
2023-05-04T13:57:23.863Z,18.47
2023-05-04T14:12:27.456Z,18.17
2023-05-04T14:27:34.404Z,18.16
2023-05-04T14:42:37.636Z,17.93
2023-05-04T14:57:41.667Z,17.87
2023-05-04T15:12:44.490Z,17.79
2023-05-04T15:27:47.349Z,17.95
2023-05-04T15:42:51.100Z,17.89
2023-05-04T15:57:54.233Z,18.34
2023-05-04T16:12:57.141Z,18.15
2023-05-04T16:28:00.204Z,18.11
2023-05-04T16:43:02.929Z,17.90
2023-05-04T16:58:05.498Z,17.91
2023-05-04T17:13:08.438Z,17.90
2023-05-04T17:28:11.512Z,17.73
2023-05-04T17:43:14.122Z,17.19
2023-05-04T17:58:16.921Z,16.59
2023-05-04T18:13:19.783Z,16.09
2023-05-04T18:28:22.587Z,15.56
2023-05-04T18:43:25.420Z,14.94
2023-05-04T18:58:28.261Z,14.30
2023-05-04T19:13:31.224Z,13.76
2023-05-04T19:28:34.234Z,13.23
2023-05-04T19:43:38.566Z,12.77
2023-05-04T19:58:41.535Z,12.40
2023-05-04T20:13:44.515Z,12.14
2023-05-04T20:28:47.260Z,11.86
2023-05-04T20:43:50.561Z,11.54
2023-05-04T20:58:53.190Z,11.31
2023-05-04T21:13:55.804Z,11.05
2023-05-04T21:28:58.684Z,10.75
2023-05-04T21:44:01.283Z,10.51
2023-05-04T21:59:03.906Z,10.26
2023-05-04T22:14:06.808Z,9.93
2023-05-04T22:29:09.683Z,9.58
2023-05-04T22:44:12.306Z,9.33
2023-05-04T22:59:15.013Z,9.17
2023-05-04T23:14:18.325Z,8.89
2023-05-04T23:29:21.227Z,8.66
2023-05-04T23:44:23.794Z,8.42
2023-05-04T23:59:26.488Z,8.09
